Time;durP1;ratioP1;P1;durP2;ratioP2;P2;SDS_P1;SDS_P2;PMS_P1;PMS_P2;Temp;Humidity;BMP_temperature;BMP_pressure;BME280_temperature;BME280_humidity;BME280_pressure;Samples;Min_cycle;Max_cycle;Signal;HPM_P1;HPM_P2
2023/02/19 00:01:19;;;;;;;20.30;4.82;;;;;;;-143.48;100.00;118439.88;5016551;28;20546;-28
2023/02/19 00:03:53;;;;;;;21.77;5.15;;;;;;;-143.48;100.00;118439.88;5033387;28;20029;-28
2023/02/19 00:06:20;;;;;;;18.25;4.50;;;;;;;-143.48;100.00;118439.88;5033541;28;20524;-28
2023/02/19 00:08:46;;;;;;;21.02;4.47;;;;;;;-143.48;100.00;118439.88;5033149;28;20095;-29
2023/02/19 00:11:14;;;;;;;19.42;4.88;;;;;;;-143.48;100.00;118439.88;5033217;28;20128;-29
2023/02/19 00:13:42;;;;;;;25.40;4.93;;;;;;;-143.48;100.00;118439.88;5033277;28;20026;-28
2023/02/19 00:16:35;;;;;;;20.15;4.68;;;;;;;-143.48;100.00;118439.88;5033247;28;20053;-29
2023/02/19 00:19:03;;;;;;;18.75;4.82;;;;;;;-143.48;100.00;118439.88;5015479;28;20107;-28
2023/02/19 00:21:29;;;;;;;21.20;4.70;;;;;;;-143.48;100.00;118439.88;5033430;28;20048;-29
2023/02/19 00:23:59;;;;;;;22.42;4.32;;;;;;;-143.48;100.00;118439.88;5033777;28;20057;-30
2023/02/19 00:26:24;;;;;;;18.92;4.20;;;;;;;-143.48;100.00;118439.88;5033212;28;20032;-29
2023/02/19 00:28:52;;;;;;;27.35;5.05;;;;;;;-143.48;100.00;118439.88;5033350;28;20030;-30
2023/02/19 00:31:21;;;;;;;16.92;4.35;;;;;;;-143.48;100.00;118439.88;5033107;28;20029;-29
2023/02/19 00:33:48;;;;;;;20.77;4.30;;;;;;;-143.48;100.00;118439.88;5033127;28;20033;-29
2023/02/19 00:36:13;;;;;;;19.88;4.22;;;;;;;-143.48;100.00;118439.88;5033367;28;20029;-29
2023/02/19 00:38:40;;;;;;;20.67;4.50;;;;;;;-143.48;100.00;118439.88;5033312;28;20448;-29
2023/02/19 00:41:18;;;;;;;20.85;4.57;;;;;;;-143.48;100.00;118439.88;5033360;28;20053;-29
2023/02/19 00:43:56;;;;;;;14.93;4.47;;;;;;;-143.48;100.00;118439.88;5032992;28;20029;-29
2023/02/19 00:46:25;;;;;;;19.77;4.70;;;;;;;-143.48;100.00;118439.88;5033007;28;20039;-29
2023/02/19 00:48:51;;;;;;;19.17;5.25;;;;;;;-143.48;100.00;118439.88;5015053;28;20032;-29
2023/02/19 00:51:17;;;;;;;23.05;5.43;;;;;;;-143.48;100.00;118439.88;5033188;28;20029;-29
2023/02/19 00:53:43;;;;;;;19.17;5.68;;;;;;;-143.48;100.00;118439.88;5032879;28;20025;-29
2023/02/19 00:56:08;;;;;;;21.00;5.30;;;;;;;-143.48;100.00;118439.88;5032879;28;20476;-29
2023/02/19 00:58:34;;;;;;;21.38;5.82;;;;;;;-143.48;100.00;118439.88;5033104;28;20021;-29
2023/02/19 01:00:59;;;;;;;20.30;5.93;;;;;;;-143.48;100.00;118439.88;5037044;28;20030;-29
2023/02/19 01:03:25;;;;;;;27.02;6.18;;;;;;;-143.48;100.00;118439.88;5036765;28;20017;-29
2023/02/19 01:05:51;;;;;;;27.42;6.20;;;;;;;-143.48;100.00;118439.88;5036321;28;20033;-29
2023/02/19 01:08:17;;;;;;;23.90;5.78;;;;;;;-143.48;100.00;118439.88;5036275;28;20064;-29
2023/02/19 01:10:43;;;;;;;18.70;5.75;;;;;;;-143.48;100.00;118439.88;5036191;28;20053;-29
2023/02/19 01:13:08;;;;;;;22.83;6.30;;;;;;;-143.48;100.00;118439.88;5018558;28;20071;-29
2023/02/19 01:15:34;;;;;;;21.58;6.65;;;;;;;-143.48;100.00;118439.88;5036234;28;20029;-29
2023/02/19 01:17:59;;;;;;;22.13;6.63;;;;;;;-143.48;100.00;118439.88;5036467;28;20029;-29
2023/02/19 01:20:25;;;;;;;26.67;7.22;;;;;;;-143.48;100.00;118439.88;5036666;28;20060;-29
2023/02/19 01:22:50;;;;;;;23.83;6.68;;;;;;;-143.48;100.00;118439.88;5036285;28;20025;-29
2023/02/19 01:25:16;;;;;;;25.92;6.57;;;;;;;-143.48;100.00;118439.88;5036098;28;20029;-29
2023/02/19 01:27:41;;;;;;;25.52;6.40;;;;;;;-143.48;100.00;118439.88;5036136;28;20092;-29
2023/02/19 01:30:07;;;;;;;25.27;6.95;;;;;;;-143.48;100.00;118439.88;5036194;28;20017;-28
2023/02/19 01:32:32;;;;;;;21.05;6.13;;;;;;;-143.48;100.00;118439.88;5036254;28;20022;-29
2023/02/19 01:34:58;;;;;;;18.70;6.35;;;;;;;-143.48;100.00;118439.88;5036165;28;20026;-29
2023/02/19 01:37:23;;;;;;;21.13;6.18;;;;;;;-143.48;100.00;118439.88;5036511;28;20108;-29
2023/02/19 01:39:48;;;;;;;21.65;6.40;;;;;;;-143.48;100.00;118439.88;5036050;28;20380;-29
2023/02/19 01:42:15;;;;;;;23.73;6.38;;;;;;;-143.48;100.00;118439.88;5035783;28;20465;-29
2023/02/19 01:44:44;;;;;;;24.27;6.72;;;;;;;-143.48;100.00;118439.88;5035737;28;20029;-30
2023/02/19 01:47:09;;;;;;;16.80;6.10;;;;;;;-143.48;100.00;118439.88;5035815;28;20180;-29
2023/02/19 01:49:40;;;;;;;16.33;5.85;;;;;;;-143.48;100.00;118439.88;5035925;28;20126;-29
2023/02/19 01:52:15;;;;;;;13.73;5.75;;;;;;;-143.48;100.00;118439.88;5035865;28;20026;-29
2023/02/19 01:54:42;;;;;;;16.00;6.28;;;;;;;-143.48;100.00;118439.88;5035651;28;20029;-29
2023/02/19 01:57:15;;;;;;;20.95;6.10;;;;;;;-143.48;100.00;118439.88;5035668;28;20013;-29
2023/02/19 01:59:42;;;;;;;15.73;5.88;;;;;;;-143.48;100.00;118439.88;5035646;28;20029;-29
2023/02/19 02:02:08;;;;;;;23.70;6.55;;;;;;;-143.48;100.00;118439.88;5017710;28;20033;-29
2023/02/19 02:04:34;;;;;;;21.60;6.38;;;;;;;-143.48;100.00;118439.88;5035302;28;20022;-29
2023/02/19 02:07:02;;;;;;;20.67;6.25;;;;;;;-143.48;100.00;118439.88;5035087;28;20026;-36
2023/02/19 02:12:13;;;;;;;17.02;5.88;;;;;;;-143.48;100.00;118439.88;5035311;28;20040;-29
2023/02/19 02:14:46;;;;;;;20.90;6.00;;;;;;;-143.48;100.00;118439.88;5035463;28;20472;-29
2023/02/19 02:17:38;;;;;;;16.77;5.93;;;;;;;-143.48;100.00;118439.88;5035105;28;20092;-29
2023/02/19 02:20:34;;;;;;;18.33;5.22;;;;;;;-143.48;100.00;118439.88;5033917;28;20076;-29
2023/02/19 02:23:28;;;;;;;21.08;6.03;;;;;;;-143.48;100.00;118439.88;5033943;28;20057;-30
2023/02/19 02:26:17;;;;;;;16.48;5.55;;;;;;;-143.48;100.00;118439.88;5034892;28;20025;-29
2023/02/19 02:29:03;;;;;;;24.42;5.40;;;;;;;-143.48;100.00;118439.88;5006710;28;20124;-29
2023/02/19 02:31:38;;;;;;;14.18;5.30;;;;;;;-143.48;100.00;118439.88;5035106;28;20431;-29
2023/02/19 02:34:11;;;;;;;20.63;5.20;;;;;;;-143.48;100.00;118439.88;5017026;28;20425;-30
2023/02/19 02:36:38;;;;;;;;;;;;;;;-143.48;100.00;118439.88;5035153;28;20083;-29
2023/02/19 02:39:09;;;;;;;15.95;4.13;;;;;;;-143.48;100.00;118439.88;5016902;28;19963;-28
2023/02/19 02:41:39;;;;;;;13.75;3.83;;;;;;;-143.48;100.00;118439.88;5016949;28;20029;-28
2023/02/19 02:44:04;;;;;;;14.57;3.75;;;;;;;-143.48;100.00;118439.88;5034556;28;20029;-29
2023/02/19 02:46:37;;;;;;;17.70;3.80;;;;;;;-143.48;100.00;118439.88;5034803;28;20032;-29
2023/02/19 02:49:05;;;;;;;18.97;3.87;;;;;;;-143.48;100.00;118439.88;5034858;28;20060;-29
2023/02/19 02:51:35;;;;;;;9.80;2.97;;;;;;;-143.48;100.00;118439.88;5034408;28;20028;-29
2023/02/19 02:56:58;;;;;;;10.55;3.20;;;;;;;-143.48;100.00;118439.88;5034583;28;20172;-29
2023/02/19 02:59:27;;;;;;;16.48;3.90;;;;;;;-143.48;100.00;118439.88;5016636;28;20034;-29
2023/02/19 03:02:19;;;;;;;14.57;3.45;;;;;;;-143.48;100.00;118439.88;5034276;28;20435;-29
2023/02/19 03:07:53;;;;;;;13.80;3.70;;;;;;;-143.48;100.00;118439.88;5034415;28;20079;-29
2023/02/19 03:10:25;;;;;;;18.30;4.03;;;;;;;-143.48;100.00;118439.88;5034006;28;20488;-29
2023/02/19 03:21:19;;;;;;;14.40;4.15;;;;;;;-143.48;100.00;118439.88;5034029;28;20036;-28
2023/02/19 03:26:32;;;;;;;16.60;4.13;;;;;;;-143.48;100.00;118439.88;5033834;28;20142;-29
2023/02/19 03:31:46;;;;;;;17.95;4.32;;;;;;;-143.48;100.00;118439.88;5019220;28;20037;-29
2023/02/19 03:34:19;;;;;;;22.77;4.55;;;;;;;-143.48;100.00;118439.88;5034287;28;20027;-29
2023/02/19 03:36:52;;;;;;;15.27;4.32;;;;;;;-143.48;100.00;118439.88;5033717;28;20033;-29
2023/02/19 03:39:21;;;;;;;14.73;4.55;;;;;;;-143.48;100.00;118439.88;5033775;28;20479;-29
2023/02/19 03:41:50;;;;;;;17.73;3.90;;;;;;;-143.48;100.00;118439.88;5034134;28;20039;-29
2023/02/19 03:44:21;;;;;;;14.27;4.00;;;;;;;-143.48;100.00;118439.88;5033841;28;20025;-29
2023/02/19 03:47:03;;;;;;;14.13;4.10;;;;;;;-143.48;100.00;118439.88;5033499;28;20625;-29
2023/02/19 03:49:50;;;;;;;12.10;3.90;;;;;;;-143.48;100.00;118439.88;5033370;28;20380;-29
2023/02/19 03:52:40;;;;;;;15.40;4.57;;;;;;;-143.48;100.00;118439.88;5015846;28;20068;-29
2023/02/19 03:55:31;;;;;;;13.48;4.10;;;;;;;-143.48;100.00;118439.88;5033443;28;20057;-29
2023/02/19 03:58:15;;;;;;;17.38;4.40;;;;;;;-143.48;100.00;118439.88;5010485;28;20467;-29
2023/02/19 04:00:48;;;;;;;11.50;4.22;;;;;;;-143.48;100.00;118439.88;5033584;28;20063;-29
2023/02/19 04:03:27;;;;;;;16.88;4.57;;;;;;;-143.48;100.00;118439.88;5033553;28;20096;-29
2023/02/19 04:06:00;;;;;;;14.88;4.68;;;;;;;-143.48;100.00;118439.88;5033638;28;20324;-29
2023/02/19 04:08:26;;;;;;;20.48;4.53;;;;;;;-143.48;100.00;118439.88;5033875;28;20021;-29
2023/02/19 04:10:54;;;;;;;13.27;4.05;;;;;;;-143.48;100.00;118439.88;5015468;28;20053;-28
2023/02/19 04:13:49;;;;;;;19.00;4.10;;;;;;;-143.48;100.00;118439.88;5033573;28;20440;-29
2023/02/19 04:16:22;;;;;;;14.15;4.90;;;;;;;-143.48;100.00;118439.88;5028078;28;20041;-29
2023/02/19 04:18:50;;;;;;;;;;;;;;;-143.48;100.00;118439.88;5034001;28;20021;-29
2023/02/19 04:21:17;;;;;;;18.88;4.35;;;;;;;-143.48;100.00;118439.88;5033788;28;20346;-28
2023/02/19 04:23:44;;;;;;;15.57;4.10;;;;;;;-143.48;100.00;118439.88;5033447;28;20017;-29
2023/02/19 04:26:12;;;;;;;16.38;4.30;;;;;;;-143.48;100.00;118439.88;5033450;28;20021;-29
2023/02/19 04:28:38;;;;;;;16.27;4.35;;;;;;;-143.48;100.00;118439.88;5016289;28;20057;-29
2023/02/19 04:31:03;;;;;;;14.98;4.43;;;;;;;-143.48;100.00;118439.88;5033188;28;20541;-29
2023/02/19 04:33:29;;;;;;;17.42;4.20;;;;;;;-143.48;100.00;118439.88;5033526;28;20069;-29
2023/02/19 04:35:54;;;;;;;13.80;4.25;;;;;;;-143.48;100.00;118439.88;5037709;28;20112;-29
2023/02/19 04:38:19;;;;;;;13.50;4.13;;;;;;;-143.48;100.00;118439.88;5037213;28;20098;-29
2023/02/19 04:40:45;;;;;;;15.13;3.83;;;;;;;-143.48;100.00;118439.88;5019042;28;20036;-29
2023/02/19 04:43:11;;;;;;;18.52;4.00;;;;;;;-143.48;100.00;118439.88;5037137;28;20036;-29
2023/02/19 04:45:37;;;;;;;13.98;3.72;;;;;;;-143.48;100.00;118439.88;5036824;28;20472;-29
2023/02/19 04:48:03;;;;;;;14.43;3.25;;;;;;;-143.48;100.00;118439.88;5037026;28;20021;-29
2023/02/19 04:50:29;;;;;;;14.30;3.72;;;;;;;-143.48;100.00;118439.88;5037013;28;20467;-29
2023/02/19 04:52:54;;;;;;;13.90;3.83;;;;;;;-143.48;100.00;118439.88;5019460;28;20025;-29
2023/02/19 04:55:19;;;;;;;14.60;3.58;;;;;;;-143.48;100.00;118439.88;5036497;28;20032;-29
2023/02/19 04:57:44;;;;;;;16.48;3.90;;;;;;;-143.48;100.00;118439.88;5036635;28;20096;-29
2023/02/19 05:00:10;;;;;;;12.68;3.85;;;;;;;-143.48;100.00;118439.88;5036588;28;20527;-28
2023/02/19 05:02:36;;;;;;;15.07;3.90;;;;;;;-143.48;100.00;118439.88;5037300;28;20033;-29
2023/02/19 05:05:01;;;;;;;18.13;3.75;;;;;;;-143.48;100.00;118439.88;5036728;28;20114;-30
2023/02/19 05:07:26;;;;;;;21.95;3.83;;;;;;;-143.48;100.00;118439.88;5036709;28;20116;-30
2023/02/19 05:09:52;;;;;;;16.15;3.67;;;;;;;-143.48;100.00;118439.88;5036272;28;20053;-30
2023/02/19 05:12:17;;;;;;;12.02;3.90;;;;;;;-143.48;100.00;118439.88;5036861;28;20381;-29
2023/02/19 05:14:43;;;;;;;18.30;3.83;;;;;;;-143.48;100.00;118439.88;5036892;28;20029;-29
2023/02/19 05:17:08;;;;;;;13.40;3.58;;;;;;;-143.48;100.00;118439.88;5036183;28;20096;-30
2023/02/19 05:19:33;;;;;;;17.35;4.35;;;;;;;-143.48;100.00;118439.88;5036751;28;20411;-29
2023/02/19 05:21:58;;;;;;;18.00;4.38;;;;;;;-143.48;100.00;118439.88;5036195;28;20524;-30
2023/02/19 05:24:25;;;;;;;14.65;4.78;;;;;;;-143.48;100.00;118439.88;5036063;28;20029;-29
2023/02/19 05:26:50;;;;;;;13.35;4.30;;;;;;;-143.48;100.00;118439.88;5035868;28;20029;-29
2023/02/19 05:29:16;;;;;;;22.05;4.28;;;;;;;-143.48;100.00;118439.88;5018200;28;20037;-29
2023/02/19 05:31:41;;;;;;;21.08;4.80;;;;;;;-143.48;100.00;118439.88;5035918;28;20024;-29
2023/02/19 05:34:06;;;;;;;16.48;5.38;;;;;;;-143.48;100.00;118439.88;5035974;28;20460;-29
2023/02/19 05:36:32;;;;;;;13.30;4.97;;;;;;;-143.48;100.00;118439.88;5035906;28;20083;-30
2023/02/19 05:38:57;;;;;;;21.40;5.10;;;;;;;-143.48;100.00;118439.88;5035795;28;20113;-29
2023/02/19 05:41:26;;;;;;;21.95;5.35;;;;;;;-143.48;100.00;118439.88;5036050;28;20026;-30
2023/02/19 05:43:52;;;;;;;14.73;4.75;;;;;;;-143.48;100.00;118439.88;5035672;28;20053;-30
2023/02/19 05:46:19;;;;;;;19.73;5.30;;;;;;;-143.48;100.00;118439.88;5034460;28;20123;-29
2023/02/19 05:48:46;;;;;;;19.55;5.50;;;;;;;-143.48;100.00;118439.88;5035649;28;20526;-29
2023/02/19 05:51:14;;;;;;;15.20;5.15;;;;;;;-143.48;100.00;118439.88;5036153;28;20029;-29
2023/02/19 05:53:41;;;;;;;18.20;5.35;;;;;;;-143.48;100.00;118439.88;5035592;28;20080;-30
2023/02/19 05:56:25;;;;;;;19.33;5.65;;;;;;;-143.48;100.00;118439.88;5017786;28;20087;-29
2023/02/19 05:58:51;;;;;;;14.60;5.43;;;;;;;-143.48;100.00;118439.88;5035550;28;20053;-30
2023/02/19 06:01:19;;;;;;;18.40;5.72;;;;;;;-143.48;100.00;118439.88;5036005;28;20026;-29
2023/02/19 06:03:44;;;;;;;15.70;5.95;;;;;;;-143.48;100.00;118439.88;5035438;28;20075;-29
2023/02/19 06:06:15;;;;;;;14.75;6.18;;;;;;;-143.48;100.00;118439.88;5035777;28;20021;-29
2023/02/19 06:08:40;;;;;;;19.92;6.20;;;;;;;-143.48;100.00;118439.88;5035506;28;20480;-30
2023/02/19 06:11:05;;;;;;;23.40;6.57;;;;;;;-143.48;100.00;118439.88;5035156;28;20128;-29
2023/02/19 06:13:31;;;;;;;19.23;6.45;;;;;;;-143.48;100.00;118439.88;5035441;28;20030;-29
2023/02/19 06:15:56;;;;;;;14.82;6.30;;;;;;;-143.48;100.00;118439.88;5034973;28;20491;-29
2023/02/19 06:18:21;;;;;;;21.05;6.05;;;;;;;-143.48;100.00;118439.88;5035201;28;20053;-29
2023/02/19 06:20:47;;;;;;;15.88;6.28;;;;;;;-143.48;100.00;118439.88;5034918;28;20483;-29
2023/02/19 06:23:12;;;;;;;15.60;6.07;;;;;;;-143.48;100.00;118439.88;5035293;28;20017;-29
2023/02/19 06:25:37;;;;;;;17.52;6.30;;;;;;;-143.48;100.00;118439.88;5017206;28;20029;-30
2023/02/19 06:28:03;;;;;;;15.82;5.68;;;;;;;-143.48;100.00;118439.88;5034882;28;20534;-29
2023/02/19 06:30:28;;;;;;;22.23;6.53;;;;;;;-143.48;100.00;118439.88;5035150;28;20017;-29
2023/02/19 06:32:54;;;;;;;20.90;6.28;;;;;;;-143.48;100.00;118439.88;5034841;28;20025;-29
2023/02/19 06:35:19;;;;;;;20.75;6.45;;;;;;;-143.48;100.00;118439.88;5034729;28;20064;-29
2023/02/19 06:37:48;;;;;;;18.58;6.00;;;;;;;-143.48;100.00;118439.88;5015048;28;20116;-29
2023/02/19 06:40:14;;;;;;;16.30;6.18;;;;;;;-143.48;100.00;118439.88;5032638;28;20100;-29
2023/02/19 06:42:40;;;;;;;20.42;6.40;;;;;;;-143.48;100.00;118439.88;5032806;28;20678;-30
2023/02/19 06:45:05;;;;;;;14.93;5.97;;;;;;;-143.48;100.00;118439.88;5032692;28;20021;-31
2023/02/19 06:47:31;;;;;;;16.60;6.22;;;;;;;-143.48;100.00;118439.88;5032369;28;20480;-29
2023/02/19 06:49:57;;;;;;;19.80;6.40;;;;;;;-143.48;100.00;118439.88;5014571;28;20037;-29
2023/02/19 06:52:22;;;;;;;16.80;6.13;;;;;;;-143.48;100.00;118439.88;5032396;28;20040;-29
2023/02/19 06:54:48;;;;;;;28.75;7.07;;;;;;;-143.48;100.00;118439.88;5032575;28;20120;-29
2023/02/19 06:57:13;;;;;;;25.95;6.05;;;;;;;-143.48;100.00;118439.88;5032436;28;20373;-29
2023/02/19 06:59:38;;;;;;;20.40;6.78;;;;;;;-143.48;100.00;118439.88;5034624;28;20468;-30
2023/02/19 07:02:04;;;;;;;24.60;6.45;;;;;;;-143.48;100.00;118439.88;5034887;28;20033;-30
2023/02/19 07:04:29;;;;;;;27.92;7.13;;;;;;;-143.48;100.00;118439.88;5035064;28;20508;-29
2023/02/19 07:06:54;;;;;;;22.60;6.28;;;;;;;-143.48;100.00;118439.88;5034024;28;20039;-29
2023/02/19 07:09:20;;;;;;;25.75;6.55;;;;;;;-143.48;100.00;118439.88;5034273;28;20028;-30
2023/02/19 07:11:45;;;;;;;22.13;7.43;;;;;;;-143.48;100.00;118439.88;5034394;28;20460;-30
2023/02/19 07:14:14;;;;;;;21.20;5.70;;;;;;;-143.48;100.00;118439.88;5034010;28;20074;-29
2023/02/19 07:16:40;;;;;;;20.63;6.97;;;;;;;-143.48;100.00;118439.88;5034064;28;20062;-29
2023/02/19 07:19:05;;;;;;;19.17;5.88;;;;;;;-143.48;100.00;118439.88;5034248;28;20017;-30
2023/02/19 07:21:30;;;;;;;26.60;6.70;;;;;;;-143.48;100.00;118439.88;5032765;28;20103;-29
2023/02/19 07:24:00;;;;;;;24.50;7.15;;;;;;;-143.48;100.00;118439.88;5032038;28;20372;-29
2023/02/19 07:26:25;;;;;;;25.70;7.47;;;;;;;-143.48;100.00;118439.88;5015484;28;20496;-29
2023/02/19 07:28:51;;;;;;;24.90;8.98;;;;;;;-143.48;100.00;118439.88;5031903;28;20033;-29
2023/02/19 07:31:18;;;;;;;29.10;9.57;;;;;;;-143.48;100.00;118439.88;5031761;28;20399;-29
2023/02/19 07:33:45;;;;;;;25.30;8.63;;;;;;;-143.48;100.00;118439.88;5031985;28;20029;-29
2023/02/19 07:36:11;;;;;;;25.65;9.05;;;;;;;-143.48;100.00;118439.88;5031866;28;20540;-29
2023/02/19 07:38:36;;;;;;;33.35;10.40;;;;;;;-143.48;100.00;118439.88;5033152;28;20096;-29
2023/02/19 07:41:03;;;;;;;30.60;9.77;;;;;;;-143.48;100.00;118439.88;5033567;28;20025;-29
2023/02/19 07:43:31;;;;;;;35.17;10.50;;;;;;;-143.48;100.00;118439.88;5033674;28;20091;-30
2023/02/19 07:45:56;;;;;;;29.13;10.50;;;;;;;-143.48;100.00;118439.88;5034168;28;20087;-29
2023/02/19 07:48:22;;;;;;;27.95;10.82;;;;;;;-143.48;100.00;118439.88;5033499;28;20029;-30
2023/02/19 07:50:51;;;;;;;27.15;10.20;;;;;;;-143.48;100.00;118439.88;5033537;28;20033;-29
2023/02/19 07:53:17;;;;;;;24.55;10.85;;;;;;;-143.48;100.00;118439.88;5015792;28;20423;-30
2023/02/19 07:55:42;;;;;;;25.13;11.88;;;;;;;-143.48;100.00;118439.88;5033537;28;20026;-30
2023/02/19 07:58:08;;;;;;;30.55;11.27;;;;;;;-143.48;100.00;118439.88;5033295;28;20025;-29
2023/02/19 08:00:33;;;;;;;26.70;10.23;;;;;;;-143.48;100.00;118439.88;5033563;28;20025;-29
2023/02/19 08:02:58;;;;;;;26.83;9.43;;;;;;;-143.48;100.00;118439.88;5033674;28;20033;-29
2023/02/19 08:05:24;;;;;;;31.92;10.30;;;;;;;-143.48;100.00;118439.88;5033313;28;20029;-29
2023/02/19 08:07:49;;;;;;;23.05;9.88;;;;;;;-143.48;100.00;118439.88;5033527;28;20029;-29
2023/02/19 08:13:18;;;;;;;24.33;8.93;;;;;;;-143.48;100.00;118439.88;5037976;28;20089;-29
2023/02/19 08:15:49;;;;;;;24.67;9.15;;;;;;;-143.48;100.00;118439.88;5037747;28;20464;-29
2023/02/19 08:18:17;;;;;;;23.63;8.98;;;;;;;-143.48;100.00;118439.88;5037625;28;20021;-29
2023/02/19 08:20:43;;;;;;;21.65;9.45;;;;;;;-143.48;100.00;118439.88;5037636;28;20083;-29
2023/02/19 08:23:09;;;;;;;20.95;8.88;;;;;;;-143.48;100.00;118439.88;5019495;28;20038;-29
2023/02/19 08:25:36;;;;;;;24.05;9.50;;;;;;;-143.48;100.00;118439.88;5037449;28;20025;-29
2023/02/19 08:28:01;;;;;;;27.50;9.13;;;;;;;-143.48;100.00;118439.88;5037339;28;20112;-30
2023/02/19 08:30:28;;;;;;;25.90;9.65;;;;;;;-143.48;100.00;118439.88;5037128;28;20534;-29
2023/02/19 08:32:54;;;;;;;22.27;8.93;;;;;;;-143.48;100.00;118439.88;5036902;28;20056;-29
2023/02/19 08:35:20;;;;;;;25.48;8.95;;;;;;;-143.48;100.00;118439.88;5036742;28;20067;-30
2023/02/19 08:37:45;;;;;;;23.13;8.80;;;;;;;-143.48;100.00;118439.88;5037002;28;20049;-29
2023/02/19 08:40:11;;;;;;;26.27;9.18;;;;;;;-143.48;100.00;118439.88;5036972;28;20080;-30
2023/02/19 08:42:37;;;;;;;33.25;9.30;;;;;;;-143.48;100.00;118439.88;5019172;28;20053;-30
2023/02/19 08:45:03;;;;;;;28.08;9.15;;;;;;;-143.48;100.00;118439.88;5036918;28;20034;-30
2023/02/19 08:47:29;;;;;;;25.20;10.02;;;;;;;-143.48;100.00;118439.88;5037147;28;20025;-29
2023/02/19 08:49:54;;;;;;;24.27;10.35;;;;;;;-143.48;100.00;118439.88;5019080;28;20056;-29
2023/02/19 08:52:20;;;;;;;30.63;10.60;;;;;;;-143.48;100.00;118439.88;5036984;28;20053;-29
2023/02/19 08:54:45;;;;;;;20.40;9.05;;;;;;;-143.48;100.00;118439.88;5018913;28;20136;-29
2023/02/19 08:57:11;;;;;;;25.42;9.75;;;;;;;-143.48;100.00;118439.88;5036584;28;20547;-30
2023/02/19 08:59:36;;;;;;;24.48;9.20;;;;;;;-143.48;100.00;118439.88;5036962;28;20353;-29
2023/02/19 09:02:01;;;;;;;32.10;9.63;;;;;;;-143.48;100.00;118439.88;5036819;28;20122;-29
2023/02/19 09:04:26;;;;;;;22.52;8.77;;;;;;;-143.48;100.00;118439.88;5036525;28;20106;-29
2023/02/19 09:06:52;;;;;;;34.33;8.85;;;;;;;-143.48;100.00;118439.88;5036609;28;20018;-29
2023/02/19 09:09:17;;;;;;;27.48;9.32;;;;;;;-143.48;100.00;118439.88;5036642;28;20029;-29
2023/02/19 09:11:43;;;;;;;24.55;7.90;;;;;;;-143.48;100.00;118439.88;5036180;28;20050;-29
2023/02/19 09:14:08;;;;;;;25.55;7.50;;;;;;;-143.48;100.00;118439.88;5036566;28;20168;-29
2023/02/19 09:16:34;;;;;;;28.23;7.22;;;;;;;-143.48;100.00;118439.88;5036441;28;20105;-29
2023/02/19 09:18:59;;;;;;;22.27;7.15;;;;;;;-143.48;100.00;118439.88;5036532;28;20095;-29
2023/02/19 09:21:25;;;;;;;22.35;6.10;;;;;;;-143.48;100.00;118439.88;5036437;28;20452;-29
2023/02/19 09:23:50;;;;;;;16.83;5.55;;;;;;;-143.48;100.00;118439.88;5036148;28;20107;-29
2023/02/19 09:26:16;;;;;;;17.88;5.78;;;;;;;-143.48;100.00;118439.88;5036198;28;20033;-29
2023/02/19 09:28:41;;;;;;;16.45;5.43;;;;;;;-143.48;100.00;118439.88;5018242;28;20022;-30
2023/02/19 09:31:10;;;;;;;19.25;5.35;;;;;;;-143.48;100.00;118439.88;5018266;28;20148;-29
2023/02/19 09:33:36;;;;;;;19.85;5.47;;;;;;;-143.48;100.00;118439.88;5036246;28;20372;-29
2023/02/19 09:36:02;;;;;;;15.27;4.63;;;;;;;-143.48;100.00;118439.88;5036217;28;20040;-29
2023/02/19 09:38:29;;;;;;;20.45;5.20;;;;;;;-143.48;100.00;118439.88;5035850;28;20357;-29
2023/02/19 09:40:56;;;;;;;16.52;5.15;;;;;;;-143.48;100.00;118439.88;5018689;28;20025;-29
2023/02/19 09:43:23;;;;;;;17.05;5.53;;;;;;;-143.48;100.00;118439.88;5018272;28;20028;-29
2023/02/19 09:46:01;;;;;;;15.65;4.03;;;;;;;-143.48;100.00;118439.88;5035805;28;20497;-29
2023/02/19 09:48:27;;;;;;;8.02;3.10;;;;;;;-143.48;100.00;118439.88;5035898;28;20017;-29
2023/02/19 09:50:52;;;;;;;5.32;2.80;;;;;;;-143.48;100.00;118439.88;5035903;28;20538;-29
2023/02/19 09:53:26;;;;;;;6.72;2.90;;;;;;;-143.48;100.00;118439.88;5035801;28;20021;-30
2023/02/19 09:55:52;;;;;;;5.55;2.28;;;;;;;-143.48;100.00;118439.88;5035803;28;20025;-29
2023/02/19 09:58:40;;;;;;;5.45;1.85;;;;;;;-143.48;100.00;118439.88;5035488;28;20026;-29
2023/02/19 10:01:10;;;;;;;3.85;2.00;;;;;;;-143.48;100.00;118439.88;5034923;28;20400;-28
2023/02/19 10:03:42;;;;;;;5.47;1.77;;;;;;;-143.48;100.00;118439.88;5035778;28;20049;-28
2023/02/19 10:06:28;;;;;;;5.55;2.33;;;;;;;-143.48;100.00;118439.88;5018446;28;20041;-29
2023/02/19 10:09:09;;;;;;;4.97;2.17;;;;;;;-143.48;100.00;118439.88;5035251;28;20021;-28
2023/02/19 10:11:39;;;;;;;4.57;2.10;;;;;;;-143.48;100.00;118439.88;5034305;28;20103;-28
2023/02/19 10:14:10;;;;;;;5.10;2.45;;;;;;;-143.48;100.00;118439.88;5033006;28;20026;-28
2023/02/19 10:16:39;;;;;;;6.07;2.40;;;;;;;-143.48;100.00;118439.88;5033021;28;20049;-28
2023/02/19 10:19:09;;;;;;;4.93;2.00;;;;;;;-143.48;100.00;118439.88;5032969;28;20478;-28
2023/02/19 10:21:36;;;;;;;4.75;2.30;;;;;;;-143.48;100.00;118439.88;5032906;28;20017;-28
2023/02/19 10:24:04;;;;;;;4.93;2.60;;;;;;;-143.48;100.00;118439.88;5032857;28;20025;-28
2023/02/19 10:26:34;;;;;;;4.78;2.53;;;;;;;-143.48;100.00;118439.88;5033223;28;20108;-28
2023/02/19 10:28:59;;;;;;;4.40;2.60;;;;;;;-143.48;100.00;118439.88;5034701;28;20025;-28
2023/02/19 10:31:25;;;;;;;5.90;2.67;;;;;;;-143.48;100.00;118439.88;5034199;28;20030;-28
2023/02/19 10:33:53;;;;;;;4.28;2.53;;;;;;;-143.48;100.00;118439.88;5035030;28;20021;-28
2023/02/19 10:36:32;;;;;;;7.40;2.22;;;;;;;-143.48;100.00;118439.88;5034849;28;20033;-28
2023/02/19 10:39:00;;;;;;;4.47;2.60;;;;;;;-143.48;100.00;118439.88;5034942;28;20076;-28
2023/02/19 10:41:27;;;;;;;3.17;2.40;;;;;;;-143.48;100.00;118439.88;5034704;28;20029;-28
2023/02/19 10:44:16;;;;;;;4.57;2.47;;;;;;;-143.48;100.00;118439.88;5034646;28;20032;-29
2023/02/19 10:46:45;;;;;;;5.10;2.70;;;;;;;-143.48;100.00;118439.88;5034312;28;20021;-28
2023/02/19 10:49:30;;;;;;;5.18;2.70;;;;;;;-143.48;100.00;118439.88;5034528;28;20075;-28
2023/02/19 10:52:01;;;;;;;5.05;2.50;;;;;;;-143.48;100.00;118439.88;5016907;28;20029;-28
2023/02/19 10:54:34;;;;;;;5.13;2.63;;;;;;;-143.48;100.00;118439.88;5034561;28;20025;-29
2023/02/19 10:57:24;;;;;;;7.22;3.08;;;;;;;-143.48;100.00;118439.88;5035257;28;20029;-28
2023/02/19 11:00:15;;;;;;;5.75;2.70;;;;;;;-143.48;100.00;118439.88;5034202;28;20055;-29
2023/02/19 11:02:44;;;;;;;4.85;2.55;;;;;;;-143.48;100.00;118439.88;5033990;28;20033;-29
2023/02/19 11:05:15;;;;;;;6.93;2.70;;;;;;;-143.48;100.00;118439.88;5034460;28;20033;-29
2023/02/19 11:07:49;;;;;;;4.90;2.75;;;;;;;-143.48;100.00;118439.88;5016811;28;20337;-28
2023/02/19 11:10:26;;;;;;;5.60;2.65;;;;;;;-143.48;100.00;118439.88;5033438;28;20072;-28
2023/02/19 11:12:55;;;;;;;5.55;2.80;;;;;;;-143.48;100.00;118439.88;5032818;28;20030;-28
2023/02/19 11:15:26;;;;;;;7.10;2.88;;;;;;;-143.48;99.76;118439.88;5034540;28;20025;-28
2023/02/19 11:18:29;;;;;;;5.32;2.80;;;;;;;-143.48;99.97;118439.88;5034188;28;20457;-28
2023/02/19 11:21:05;;;;;;;4.88;2.83;;;;;;;-143.48;99.98;118439.88;5033914;28;20087;-29
2023/02/19 11:23:35;;;;;;;4.50;2.80;;;;;;;-143.48;100.00;118439.88;5034276;28;20364;-29
2023/02/19 11:26:05;;;;;;;6.65;3.80;;;;;;;-143.48;100.00;118439.88;5033952;28;20478;-29
2023/02/19 11:28:40;;;;;;;4.65;3.10;;;;;;;-143.48;99.92;118439.88;5034080;28;20535;-29